Time;durP1;ratioP1;P1;durP2;ratioP2;P2;SDS_P1;SDS_P2;PMS_P1;PMS_P2;Temp;Humidity;BMP_temperature;BMP_pressure;BME280_temperature;BME280_humidity;BME280_pressure;Samples;Min_cycle;Max_cycle;Signal;HPM_P1;HPM_P2
2023/09/26 00:01:30;;;;;;;2.40;2.20;;;21.10;59.40;21.90;101412.00;;;;5014968;28;20226;-48
2023/09/26 00:03:56;;;;;;;2.30;2.10;;;21.00;59.30;22.00;101409.00;;;;5013364;28;20258;-48
2023/09/26 00:06:23;;;;;;;2.50;2.30;;;21.10;60.00;22.00;101339.00;;;;5014542;28;20179;-46
2023/09/26 00:08:52;;;;;;;2.23;2.03;;;21.00;59.30;22.00;101399.00;;;;5014573;28;20183;-47
2023/09/26 00:11:18;;;;;;;3.47;2.10;;;21.00;59.30;22.00;101405.00;;;;5013373;28;20234;-47
2023/09/26 00:13:44;;;;;;;2.23;2.03;;;21.00;59.40;22.00;101416.00;;;;5013140;28;20689;-47
2023/09/26 00:16:11;;;;;;;3.17;2.20;;;21.00;59.40;21.90;101414.00;;;;5014575;28;20218;-47
2023/09/26 00:18:40;;;;;;;2.13;2.00;;;21.00;59.40;21.90;101414.00;;;;5013157;28;20199;-47
2023/09/26 00:21:07;;;;;;;2.43;2.23;;;21.00;59.40;21.90;101409.00;;;;5014713;28;20195;-47
2023/09/26 00:23:33;;;;;;;2.10;2.00;;;21.00;59.40;21.90;101417.00;;;;5014593;28;20230;-47
2023/09/26 00:25:59;;;;;;;2.40;2.20;;;21.00;59.40;21.90;101412.00;;;;5014813;28;20183;-47
2023/09/26 00:28:26;;;;;;;2.17;1.97;;;21.00;59.40;21.90;101423.00;;;;5012825;28;20227;-48
2023/09/26 00:30:51;;;;;;;2.40;2.17;;;21.00;59.40;21.90;101424.00;;;;5013238;28;20805;-47
2023/09/26 00:33:18;;;;;;;2.30;2.10;;;20.90;59.40;21.90;101412.00;;;;5014191;28;20263;-49
2023/09/26 00:35:43;;;;;;;2.23;2.10;;;20.90;59.50;21.90;101420.00;;;;5014460;28;20191;-47
2023/09/26 00:38:09;;;;;;;2.40;2.20;;;20.90;59.50;21.90;101410.00;;;;5014243;28;20683;-48
2023/09/26 00:40:35;;;;;;;2.60;2.10;;;20.90;59.50;21.80;101412.00;;;;5014319;28;20667;-47
2023/09/26 00:43:01;;;;;;;2.37;2.17;;;20.90;59.50;21.80;101417.00;;;;5014446;28;20179;-48
2023/09/26 00:45:26;;;;;;;2.20;2.00;;;20.90;59.50;21.80;101406.00;;;;5013221;28;20179;-48
2023/09/26 00:47:53;;;;;;;2.30;2.10;;;20.90;59.60;21.80;101407.00;;;;5014252;28;20270;-48
2023/09/26 00:50:20;;;;;;;3.13;2.20;;;20.90;59.60;21.80;101405.00;;;;5014299;28;20179;-48
2023/09/26 00:52:51;;;;;;;2.10;2.00;;;20.90;59.60;21.80;101405.00;;;;4996448;28;20206;-48
2023/09/26 00:55:22;;;;;;;2.40;2.20;;;20.90;59.60;21.80;101401.00;;;;4993001;28;20184;-47
2023/09/26 00:57:48;;;;;;;2.43;2.23;;;20.90;59.60;21.80;101404.00;;;;5002350;28;20207;-48
2023/09/26 01:00:15;;;;;;;2.43;2.23;;;20.80;59.50;21.80;101409.00;;;;5009754;28;20199;-48
2023/09/26 01:02:41;;;;;;;2.47;2.27;;;20.90;59.60;21.80;101404.00;;;;5010638;28;20688;-48
2023/09/26 01:05:08;;;;;;;2.27;2.07;;;20.90;59.60;21.70;101413.00;;;;5010975;28;20228;-48
2023/09/26 01:07:34;;;;;;;2.30;2.10;;;20.80;59.50;21.70;101416.00;;;;5009238;28;20245;-48
2023/09/26 01:10:00;;;;;;;2.30;2.10;;;20.90;59.60;21.70;101405.00;;;;4993398;28;20176;-47
2023/09/26 01:12:27;;;;;;;2.73;2.20;;;20.80;59.50;21.70;101402.00;;;;5010970;28;20209;-48
2023/09/26 01:14:54;;;;;;;2.30;2.10;;;20.80;59.60;21.70;101401.00;;;;4998689;28;20247;-50
2023/09/26 01:17:19;;;;;;;2.27;2.10;;;20.80;59.50;21.70;101416.00;;;;5029370;28;20192;-48
2023/09/26 01:19:45;;;;;;;2.30;2.10;;;20.80;59.50;21.70;101401.00;;;;5010843;28;20195;-48
2023/09/26 01:22:14;;;;;;;2.20;2.00;;;20.80;59.70;21.70;101392.00;;;;5011949;28;20207;-48
2023/09/26 01:24:39;;;;;;;2.20;2.00;;;20.80;59.70;21.70;101397.00;;;;5009460;28;20187;-48
2023/09/26 01:27:05;;;;;;;2.50;2.30;;;20.80;59.70;21.60;101393.00;;;;5011819;28;20190;-49
2023/09/26 01:29:31;;;;;;;2.47;2.20;;;20.70;59.60;21.60;101391.00;;;;5017101;28;20785;-48
2023/09/26 01:31:56;;;;;;;2.20;2.10;;;20.70;59.60;21.60;101385.00;;;;5022222;28;20222;-48
2023/09/26 01:34:22;;;;;;;2.57;2.00;;;20.80;59.80;21.60;101390.00;;;;5010692;28;20192;-47
2023/09/26 01:36:48;;;;;;;2.50;2.30;;;20.70;59.70;21.60;101395.00;;;;5010423;28;20625;-48
2023/09/26 01:39:13;;;;;;;2.20;2.10;;;20.70;59.70;21.60;101384.00;;;;5010208;28;20207;-47
2023/09/26 01:41:39;;;;;;;2.30;2.10;;;20.70;59.70;21.60;101387.00;;;;5010127;28;20199;-47
2023/09/26 01:44:06;;;;;;;2.23;2.03;;;20.70;59.70;21.60;101387.00;;;;5010066;28;20186;-47
2023/09/26 01:46:32;;;;;;;2.57;2.10;;;20.70;59.70;21.60;101386.00;;;;5010165;28;20220;-47
2023/09/26 01:48:58;;;;;;;2.33;2.10;;;20.70;59.80;21.60;101391.00;;;;5009960;28;20257;-47
2023/09/26 01:51:23;;;;;;;2.30;2.10;;;20.70;59.80;21.50;101377.00;;;;5009879;28;20219;-48
2023/09/26 01:53:49;;;;;;;2.40;2.20;;;20.70;59.80;21.50;101379.00;;;;5008819;28;20187;-47
2023/09/26 01:56:15;;;;;;;2.87;2.00;;;20.60;59.80;21.50;101370.00;;;;5010051;28;20210;-47
2023/09/26 01:58:41;;;;;;;2.20;2.00;;;20.60;59.80;21.50;101375.00;;;;5008228;28;20784;-47
2023/09/26 02:01:07;;;;;;;2.20;2.00;;;20.60;59.80;21.50;101367.00;;;;5009557;28;20230;-47
2023/09/26 02:03:32;;;;;;;2.67;2.20;;;20.70;59.90;21.50;101370.00;;;;5010116;28;20513;-47
2023/09/26 02:05:58;;;;;;;2.43;2.23;;;20.60;59.80;21.50;101369.00;;;;5009741;28;20175;-47
2023/09/26 02:08:25;;;;;;;2.17;2.07;;;20.60;59.80;21.40;101370.00;;;;5009486;28;20665;-47
2023/09/26 02:10:50;;;;;;;2.83;2.10;;;20.60;59.80;21.40;101363.00;;;;5009422;28;20278;-48
2023/09/26 02:13:16;;;;;;;2.40;2.20;;;20.60;59.80;21.40;101365.00;;;;5008795;28;20199;-48
2023/09/26 02:15:42;;;;;;;2.40;2.20;;;20.60;59.90;21.40;101360.00;;;;5009682;28;20203;-48
2023/09/26 02:18:08;;;;;;;2.30;2.10;;;20.50;59.80;21.40;101360.00;;;;5008026;28;20215;-48
2023/09/26 02:20:33;;;;;;;2.60;2.13;;;20.50;59.80;21.40;101361.00;;;;5009652;28;20237;-47
2023/09/26 02:22:59;;;;;;;2.30;2.10;;;20.50;59.80;21.40;101362.00;;;;5009909;28;20211;-48
2023/09/26 02:25:25;;;;;;;2.57;2.37;;;20.50;59.80;21.40;101362.00;;;;5009850;28;20183;-48
2023/09/26 02:27:51;;;;;;;2.47;2.27;;;20.50;59.90;21.30;101368.00;;;;5009569;28;20265;-48
2023/09/26 02:30:22;;;;;;;2.50;2.30;;;20.50;59.90;21.30;101355.00;;;;5008350;28;20278;-48
2023/09/26 02:32:48;;;;;;;2.30;2.10;;;20.50;60.00;21.30;101365.00;;;;5008711;28;20233;-47
2023/09/26 02:35:16;;;;;;;2.20;2.00;;;20.50;59.90;21.30;101360.00;;;;5009380;28;20191;-48
2023/09/26 02:37:42;;;;;;;2.40;2.20;;;20.50;59.90;21.30;101367.00;;;;5008930;28;20322;-47
2023/09/26 02:40:09;;;;;;;2.23;2.03;;;20.40;59.80;21.30;101360.00;;;;5007764;28;20556;-47
2023/09/26 02:42:39;;;;;;;2.00;1.90;;;20.40;59.90;21.20;101345.00;;;;5008787;28;20203;-48
2023/09/26 02:45:05;;;;;;;2.13;1.97;;;20.40;59.90;21.20;101352.00;;;;5007954;28;20278;-47
2023/09/26 02:47:31;;;;;;;2.20;2.10;;;20.40;59.90;21.20;101351.00;;;;5009372;28;20187;-47
2023/09/26 02:49:57;;;;;;;2.40;2.20;;;20.40;60.00;21.20;101340.00;;;;5009180;28;20191;-47
2023/09/26 02:52:24;;;;;;;2.20;2.00;;;20.40;59.90;21.10;101350.00;;;;5008952;28;20286;-47
2023/09/26 02:54:49;;;;;;;2.13;2.00;;;20.40;60.00;21.20;101351.00;;;;5008961;28;20274;-47
2023/09/26 02:57:15;;;;;;;2.33;2.10;;;20.30;59.80;21.20;101356.00;;;;5008735;28;20199;-47
2023/09/26 02:59:41;;;;;;;2.17;2.07;;;20.30;59.90;21.20;101358.00;;;;5008872;28;20209;-47
2023/09/26 03:02:07;;;;;;;2.57;2.30;;;20.30;60.80;21.10;101344.00;;;;5010468;28;20211;-48
2023/09/26 03:04:33;;;;;;;3.60;2.30;;;20.30;60.00;21.10;101349.00;;;;5010264;28;20805;-48
2023/09/26 03:06:58;;;;;;;3.40;2.40;;;20.30;60.00;21.10;101350.00;;;;5010086;28;20184;-48
2023/09/26 03:09:24;;;;;;;3.10;2.10;;;20.30;60.10;21.10;101349.00;;;;5009896;28;20266;-48
2023/09/26 03:11:50;;;;;;;2.00;1.90;;;20.30;60.00;21.10;101355.00;;;;5010070;28;20211;-47
2023/09/26 03:14:18;;;;;;;2.10;2.00;;;20.30;60.90;21.10;101359.00;;;;5025549;28;20252;-48
2023/09/26 03:16:44;;;;;;;2.50;2.03;;;20.20;60.00;21.10;101344.00;;;;5016989;28;20184;-48
2023/09/26 03:19:10;;;;;;;2.23;2.07;;;20.20;60.00;21.10;101348.00;;;;5010692;28;20725;-48
2023/09/26 03:21:36;;;;;;;2.33;2.10;;;20.20;60.00;21.00;101330.00;;;;5010297;28;20203;-48
2023/09/26 03:24:02;;;;;;;2.17;2.00;;;20.20;60.00;21.00;101356.00;;;;5010763;28;20190;-47
2023/09/26 03:26:28;;;;;;;2.40;2.20;;;20.20;60.10;21.00;101359.00;;;;5011605;28;20183;-51
2023/09/26 03:28:54;;;;;;;2.20;2.00;;;20.20;60.10;21.00;101343.00;;;;5029020;28;20199;-54
2023/09/26 03:31:19;;;;;;;4.67;2.13;;;20.20;60.10;21.00;101344.00;;;;5012079;28;20214;-45
2023/09/26 03:33:45;;;;;;;2.97;2.17;;;20.20;60.10;20.90;101339.00;;;;5006122;28;20207;-47
2023/09/26 03:36:11;;;;;;;2.87;2.30;;;20.20;60.20;20.90;101336.00;;;;5009669;28;20217;-50
2023/09/26 03:38:37;;;;;;;3.47;2.33;;;20.20;60.20;20.90;101335.00;;;;5007513;28;20298;-48
2023/09/26 03:41:04;;;;;;;3.77;2.20;;;20.10;60.00;20.90;101341.00;;;;5008731;28;20242;-47
2023/09/26 03:43:31;;;;;;;4.57;2.20;;;20.10;60.00;20.90;101342.00;;;;5008820;28;20179;-47
2023/09/26 03:46:04;;;;;;;2.73;2.10;;;20.10;59.90;20.90;101346.00;;;;5008246;28;20179;-47
2023/09/26 03:48:30;;;;;;;3.13;2.30;;;20.10;59.90;20.90;101333.00;;;;5008829;28;20194;-48
2023/09/26 03:50:56;;;;;;;2.90;2.30;;;20.10;59.90;20.90;101339.00;;;;4991488;28;20226;-48
2023/09/26 03:53:22;;;;;;;2.37;2.17;;;20.10;59.80;20.80;101335.00;;;;5007553;28;20651;-48
2023/09/26 03:55:54;;;;;;;2.43;2.17;;;20.00;59.70;20.80;101331.00;;;;5009368;28;20188;-48
2023/09/26 03:58:21;;;;;;;2.93;2.30;;;20.00;59.70;20.80;101331.00;;;;5007711;28;20272;-48
2023/09/26 04:00:46;;;;;;;2.50;2.30;;;20.00;59.70;20.80;101319.00;;;;5007930;28;20181;-48
2023/09/26 04:03:12;;;;;;;2.43;2.23;;;19.90;59.60;20.70;101323.00;;;;5008376;28;20354;-48
2023/09/26 04:05:39;;;;;;;3.57;2.23;;;20.00;59.60;20.70;101326.00;;;;5008753;28;20189;-47
2023/09/26 04:08:05;;;;;;;3.13;2.20;;;19.90;59.50;20.70;101314.00;;;;5008942;28;20215;-47
2023/09/26 04:10:39;;;;;;;2.53;2.33;;;19.90;59.40;20.70;101318.00;;;;5008496;28;20904;-53
2023/09/26 04:13:05;;;;;;;2.57;2.37;;;19.90;59.50;20.70;101323.00;;;;5007371;28;20175;-53
2023/09/26 04:15:30;;;;;;;2.43;2.23;;;19.90;59.40;20.70;101327.00;;;;5007423;28;20191;-54
2023/09/26 04:17:56;;;;;;;3.27;2.27;;;19.90;59.40;20.60;101325.00;;;;5006761;28;20210;-53
2023/09/26 04:20:23;;;;;;;4.00;2.40;;;19.90;59.40;20.60;101334.00;;;;5008570;28;20180;-55
2023/09/26 04:22:49;;;;;;;3.27;2.20;;;19.90;59.70;20.60;101330.00;;;;5008366;28;20672;-53
2023/09/26 04:25:15;;;;;;;2.40;2.20;;;19.90;59.60;20.60;101331.00;;;;5008203;28;20188;-54
2023/09/26 04:27:40;;;;;;;2.40;2.20;;;19.90;59.60;20.60;101332.00;;;;5007660;28;20188;-54
2023/09/26 04:30:08;;;;;;;2.43;2.23;;;19.90;59.60;20.60;101317.00;;;;5012342;28;20274;-54
2023/09/26 04:32:34;;;;;;;4.13;2.53;;;19.80;59.60;20.60;101311.00;;;;5011376;28;20234;-54
2023/09/26 04:35:00;;;;;;;3.50;2.30;;;19.80;59.70;20.60;101320.00;;;;5011243;28;20662;-54
2023/09/26 04:37:26;;;;;;;5.10;2.27;;;19.80;59.70;20.60;101312.00;;;;5011910;28;20531;-54
2023/09/26 04:39:51;;;;;;;3.77;2.50;;;19.80;59.80;20.60;101317.00;;;;5011310;28;20662;-54
2023/09/26 04:42:17;;;;;;;3.67;2.40;;;19.80;59.80;20.60;101322.00;;;;5010609;28;20199;-54
2023/09/26 04:44:43;;;;;;;3.87;2.20;;;19.80;59.90;20.60;101311.00;;;;5012123;28;20241;-55
2023/09/26 04:47:09;;;;;;;3.33;2.57;;;19.80;59.90;20.50;101302.00;;;;5012035;28;20182;-54
2023/09/26 04:49:35;;;;;;;5.20;2.73;;;19.70;59.90;20.50;101306.00;;;;5011473;28;20265;-55
2023/09/26 04:52:02;;;;;;;6.67;2.97;;;19.70;60.00;20.50;101308.00;;;;5011429;28;20653;-47
2023/09/26 04:54:27;;;;;;;11.10;2.90;;;19.80;60.30;20.50;101308.00;;;;5011826;28;20195;-47
2023/09/26 04:56:53;;;;;;;9.03;3.10;;;19.80;60.90;20.50;101298.00;;;;5011958;28;20190;-47
2023/09/26 04:59:19;;;;;;;5.53;3.00;;;19.80;60.40;20.50;101296.00;;;;5011702;28;20212;-47
2023/09/26 05:01:48;;;;;;;7.40;2.87;;;19.70;60.40;20.50;101293.00;;;;5015025;28;20194;-50
2023/09/26 05:04:15;;;;;;;7.93;2.70;;;19.80;60.70;20.50;101298.00;;;;5016356;28;20241;-52
2023/09/26 05:06:41;;;;;;;6.97;2.80;;;19.70;61.10;20.40;101300.00;;;;5014434;28;20189;-47
2023/09/26 05:09:07;;;;;;;4.17;2.40;;;19.70;60.90;20.40;101304.00;;;;5012040;28;20184;-47
2023/09/26 05:11:32;;;;;;;8.97;2.97;;;19.70;60.90;20.40;101299.00;;;;5011361;28;20267;-47
2023/09/26 05:13:59;;;;;;;5.30;2.73;;;19.70;60.90;20.40;101309.00;;;;5016689;28;20249;-47
2023/09/26 05:16:25;;;;;;;5.80;2.50;;;19.70;60.90;20.40;101311.00;;;;5012182;28;20230;-47
2023/09/26 05:18:51;;;;;;;3.60;2.30;;;19.70;60.90;20.40;101309.00;;;;5011614;28;20687;-48
2023/09/26 05:21:17;;;;;;;3.13;2.30;;;19.70;60.90;20.40;101302.00;;;;5013401;28;20210;-47
2023/09/26 05:23:42;;;;;;;4.10;2.43;;;19.60;60.80;20.40;101305.00;;;;5013094;28;20552;-47
2023/09/26 05:26:12;;;;;;;3.73;2.50;;;19.70;60.90;20.40;101283.00;;;;5013703;28;20190;-47
2023/09/26 05:28:38;;;;;;;5.53;2.80;;;19.70;60.90;20.40;101308.00;;;;5000646;28;20183;-47
2023/09/26 05:31:04;;;;;;;8.53;2.87;;;19.70;60.90;20.40;101305.00;;;;4996019;28;20218;-47
2023/09/26 05:33:30;;;;;;;4.63;2.47;;;19.70;60.90;20.40;101304.00;;;;5011144;28;20206;-47
2023/09/26 05:35:56;;;;;;;2.73;2.30;;;19.60;60.80;20.40;101305.00;;;;5010365;28;20280;-47
2023/09/26 05:38:22;;;;;;;4.00;2.60;;;19.60;60.80;20.40;101318.00;;;;5011335;28;20210;-46
2023/09/26 05:40:48;;;;;;;3.70;2.33;;;19.70;60.90;20.30;101319.00;;;;5009273;28;20198;-47
2023/09/26 05:43:13;;;;;;;7.50;2.80;;;19.60;60.90;20.30;101318.00;;;;5011420;28;20183;-47
2023/09/26 05:45:39;;;;;;;7.37;2.70;;;19.70;61.10;20.30;101317.00;;;;5010708;28;20182;-47
2023/09/26 05:48:05;;;;;;;3.20;2.20;;;19.60;61.50;20.30;101317.00;;;;5011368;28;20197;-48
2023/09/26 05:50:31;;;;;;;5.37;2.57;;;19.60;61.10;20.30;101311.00;;;;5004008;28;20191;-47
2023/09/26 05:52:57;;;;;;;4.10;2.53;;;19.60;61.20;20.30;101316.00;;;;5010708;28;20213;-47
2023/09/26 05:55:22;;;;;;;7.60;2.77;;;19.60;61.20;20.30;101311.00;;;;5011116;28;20213;-49
2023/09/26 05:57:48;;;;;;;4.87;2.60;;;19.50;61.20;20.30;101323.00;;;;5011164;28;20208;-48
2023/09/26 06:00:15;;;;;;;7.50;2.43;;;19.50;61.20;20.30;101323.00;;;;5011586;28;20249;-47
2023/09/26 06:02:41;;;;;;;4.30;2.20;;;19.60;61.30;20.30;101321.00;;;;5011226;28;20212;-47
2023/09/26 06:05:07;;;;;;;3.57;2.40;;;19.60;61.20;20.30;101319.00;;;;5011190;28;20173;-47
2023/09/26 06:07:33;;;;;;;3.07;2.33;;;19.50;61.30;20.20;101322.00;;;;5010820;28;20184;-47
2023/09/26 06:09:59;;;;;;;6.10;2.70;;;19.50;61.40;20.20;101326.00;;;;5011144;28;20205;-48
2023/09/26 06:12:25;;;;;;;4.73;2.57;;;19.50;61.40;20.20;101321.00;;;;5011027;28;20212;-48
2023/09/26 06:14:51;;;;;;;4.57;2.50;;;19.50;61.40;20.20;101322.00;;;;5011367;28;20202;-48
2023/09/26 06:17:17;;;;;;;4.43;2.30;;;19.50;61.40;20.20;101323.00;;;;5010753;28;20210;-47
2023/09/26 06:19:46;;;;;;;3.27;2.20;;;19.50;61.30;20.20;101319.00;;;;5010406;28;20968;-48
2023/09/26 06:22:16;;;;;;;3.13;2.43;;;19.50;61.40;20.20;101316.00;;;;5009644;28;20220;-48
2023/09/26 06:24:42;;;;;;;3.23;2.13;;;19.40;61.40;20.10;101314.00;;;;5010937;28;20187;-47
2023/09/26 06:27:07;;;;;;;3.40;2.27;;;19.40;61.40;20.10;101310.00;;;;5011055;28;20186;-48
2023/09/26 06:29:37;;;;;;;4.17;2.30;;;19.40;61.30;20.10;101323.00;;;;5010852;28;20930;-48
2023/09/26 06:32:03;;;;;;;3.17;2.43;;;19.40;61.30;20.20;101320.00;;;;5010787;28;20221;-47
2023/09/26 06:34:31;;;;;;;3.77;2.47;;;19.50;61.30;20.10;101316.00;;;;5010798;28;20188;-47
2023/09/26 06:36:57;;;;;;;2.90;2.33;;;19.50;61.40;20.10;101315.00;;;;5009055;28;20217;-47
2023/09/26 06:39:23;;;;;;;3.37;2.23;;;19.40;61.30;20.10;101309.00;;;;5010185;28;20238;-47
2023/09/26 06:41:48;;;;;;;3.07;2.33;;;19.40;61.40;20.10;101325.00;;;;5010348;28;20202;-47
2023/09/26 06:44:14;;;;;;;3.63;2.33;;;19.40;61.30;20.10;101312.00;;;;5010459;28;20185;-47
2023/09/26 06:46:40;;;;;;;3.20;2.20;;;19.40;61.30;20.10;101309.00;;;;5010355;28;20184;-47
2023/09/26 06:49:06;;;;;;;3.07;2.30;;;19.40;61.50;20.10;101311.00;;;;5010180;28;20277;-48
2023/09/26 06:51:33;;;;;;;2.73;2.23;;;19.40;61.50;20.10;101315.00;;;;5009561;28;20231;-47
2023/09/26 06:54:00;;;;;;;2.83;2.20;;;19.40;61.50;20.10;101306.00;;;;5010350;28;20615;-47
2023/09/26 06:56:25;;;;;;;4.20;2.07;;;19.40;61.70;20.10;101310.00;;;;5010272;28;20678;-48
2023/09/26 06:58:51;;;;;;;3.03;2.10;;;19.40;61.70;20.00;101307.00;;;;5009787;28;20207;-46
2023/09/26 07:01:18;;;;;;;5.17;2.40;;;19.30;61.80;20.00;101297.00;;;;5010189;28;20343;-51
2023/09/26 07:03:44;;;;;;;3.40;2.37;;;19.30;61.70;20.00;101300.00;;;;5010137;28;20177;-47
2023/09/26 07:06:12;;;;;;;2.30;2.10;;;19.30;61.60;20.00;101302.00;;;;5010767;28;20209;-47
2023/09/26 07:08:38;;;;;;;2.40;2.00;;;19.30;61.60;20.00;101290.00;;;;5012103;28;20243;-47
2023/09/26 07:11:05;;;;;;;2.47;2.20;;;19.30;61.60;20.00;101296.00;;;;5021270;28;20455;-48
2023/09/26 07:13:34;;;;;;;3.57;2.40;;;19.30;61.60;20.00;101295.00;;;;5013155;28;20182;-47
2023/09/26 07:16:00;;;;;;;2.40;2.20;;;19.30;61.70;20.00;101296.00;;;;5010828;28;20743;-47
2023/09/26 07:18:26;;;;;;;4.47;2.10;;;19.30;61.70;20.00;101285.00;;;;5010737;28;20212;-48
2023/09/26 07:20:53;;;;;;;2.00;1.90;;;19.30;61.70;20.00;101293.00;;;;5011214;28;20192;-48
2023/09/26 07:23:18;;;;;;;2.73;2.20;;;19.30;61.80;20.00;101295.00;;;;5019778;28;20174;-48
2023/09/26 07:25:44;;;;;;;2.30;2.10;;;19.20;61.70;20.00;101297.00;;;;5023226;28;20184;-47
2023/09/26 07:28:10;;;;;;;2.90;2.00;;;19.30;61.90;20.00;101295.00;;;;5010713;28;20245;-48
2023/09/26 07:30:36;;;;;;;2.20;2.00;;;19.20;61.90;19.90;101300.00;;;;5008604;28;20238;-47
2023/09/26 07:33:01;;;;;;;3.23;2.13;;;19.30;62.00;19.90;101234.00;;;;5009674;28;20257;-48
2023/09/26 07:35:28;;;;;;;2.43;2.00;;;19.30;62.10;19.90;101309.00;;;;5009903;28;20190;-47
2023/09/26 07:37:55;;;;;;;2.30;2.10;;;19.20;62.00;19.90;101303.00;;;;5008577;28;20685;-47
2023/09/26 07:40:22;;;;;;;2.60;2.10;;;19.20;62.10;19.90;101310.00;;;;5008259;28;20180;-49
2023/09/26 07:42:47;;;;;;;4.20;2.20;;;19.20;62.10;19.90;101299.00;;;;5009344;28;20245;-47
2023/09/26 07:45:16;;;;;;;2.30;2.10;;;19.20;62.20;19.90;101318.00;;;;5009808;28;20652;-47
2023/09/26 07:47:43;;;;;;;2.30;2.10;;;19.20;62.20;19.90;101314.00;;;;5009443;28;20202;-47
2023/09/26 07:50:09;;;;;;;2.27;2.07;;;19.20;62.30;19.90;101320.00;;;;5009738;28;20195;-48
2023/09/26 07:52:35;;;;;;;2.20;2.00;;;19.20;62.40;19.90;101320.00;;;;5009408;28;20209;-48
2023/09/26 07:55:00;;;;;;;2.93;2.20;;;19.20;62.50;19.90;101310.00;;;;5009863;28;20189;-48
2023/09/26 07:57:26;;;;;;;2.70;2.17;;;19.20;62.60;19.90;101317.00;;;;5009387;28;20196;-48
2023/09/26 07:59:52;;;;;;;3.00;2.17;;;19.20;62.70;19.90;101308.00;;;;5009369;28;20186;-47
2023/09/26 08:02:17;;;;;;;2.10;2.00;;;19.20;62.80;19.90;101316.00;;;;5009767;28;20576;-47
2023/09/26 08:04:44;;;;;;;3.50;1.90;;;19.10;63.70;19.90;101312.00;;;;5013287;28;20177;-47
2023/09/26 08:07:10;;;;;;;3.10;2.13;;;19.10;62.90;19.90;101310.00;;;;5014106;28;20716;-47
2023/09/26 08:09:36;;;;;;;2.10;1.90;;;19.20;63.00;19.90;101312.00;;;;5013433;28;20188;-48
2023/09/26 08:12:01;;;;;;;2.47;2.10;;;19.20;63.10;19.90;101315.00;;;;5013274;28;20309;-47
2023/09/26 08:14:27;;;;;;;2.40;2.20;;;19.20;63.10;19.90;101313.00;;;;5012212;28;20242;-47
2023/09/26 08:16:53;;;;;;;2.30;2.10;;;19.20;63.90;19.90;101321.00;;;;5013344;28;20250;-47
2023/09/26 08:19:19;;;;;;;2.77;2.00;;;19.20;63.10;19.90;101312.00;;;;5012878;28;20219;-47
2023/09/26 08:21:45;;;;;;;3.40;1.97;;;19.10;63.10;19.90;101307.00;;;;5013062;28;20207;-47
2023/09/26 08:24:10;;;;;;;2.33;2.13;;;19.20;63.30;19.90;101308.00;;;;5013118;28;20502;-47
2023/09/26 08:26:36;;;;;;;2.27;2.07;;;19.20;63.40;19.90;101301.00;;;;5012652;28;20190;-48
2023/09/26 08:29:04;;;;;;;2.30;2.10;;;19.20;63.30;19.90;101297.00;;;;5013107;28;20658;-48
2023/09/26 08:31:30;;;;;;;2.23;2.03;;;19.10;63.30;19.90;101299.00;;;;5013271;28;20297;-47
2023/09/26 08:33:56;;;;;;;2.43;2.17;;;19.10;63.40;19.90;101293.00;;;;5010396;28;20658;-52
2023/09/26 08:36:22;;;;;;;2.30;2.10;;;19.20;63.50;19.90;101304.00;;;;5011298;28;20565;-47
2023/09/26 08:38:50;;;;;;;2.37;2.17;;;19.10;63.50;19.90;101303.00;;;;5010398;28;20269;-48
2023/09/26 08:41:17;;;;;;;2.07;1.97;;;19.20;63.70;19.90;101293.00;;;;5012945;28;20220;-48
2023/09/26 08:43:43;;;;;;;2.30;2.07;;;19.10;63.70;19.50;101292.00;;;;5016303;28;20184;-47
2023/09/26 08:46:09;;;;;;;2.73;2.00;;;19.20;64.00;19.90;101295.00;;;;5018924;28;20195;-47
2023/09/26 08:48:35;;;;;;;2.37;2.10;;;19.20;64.10;19.90;101296.00;;;;5015808;28;20270;-48
2023/09/26 08:51:02;;;;;;;2.10;1.90;;;19.10;64.10;19.90;101300.00;;;;5012717;28;20205;-47
2023/09/26 08:53:28;;;;;;;2.60;1.90;;;19.10;64.10;19.90;101303.00;;;;5011358;28;20251;-47
2023/09/26 08:55:54;;;;;;;2.27;2.07;;;19.20;64.30;19.90;101308.00;;;;5012503;28;20323;-47
2023/09/26 08:58:20;;;;;;;2.10;2.00;;;19.20;64.50;19.90;101304.00;;;;5012438;28;20300;-49
2023/09/26 09:00:46;;;;;;;2.00;1.90;;;19.20;64.40;19.90;101295.00;;;;5012397;28;20190;-47
2023/09/26 09:03:13;;;;;;;2.20;2.00;;;19.20;64.50;19.90;101283.00;;;;5012831;28;20265;-46
2023/09/26 09:05:39;;;;;;;1.90;1.80;;;19.20;64.70;19.90;101299.00;;;;5012138;28;20190;-47
2023/09/26 09:08:05;;;;;;;2.23;2.03;;;19.20;64.60;19.90;101292.00;;;;5012692;28;20267;-47
2023/09/26 09:10:31;;;;;;;2.30;2.10;;;19.20;64.70;19.90;101293.00;;;;5027158;28;20202;-47
2023/09/26 09:13:04;;;;;;;2.10;1.90;;;19.10;64.50;19.90;101286.00;;;;5014357;28;20571;-47
2023/09/26 09:15:30;;;;;;;2.00;1.90;;;19.20;64.80;19.90;101289.00;;;;5010137;28;20642;-48
2023/09/26 09:17:57;;;;;;;1.90;1.80;;;19.20;64.90;19.90;101282.00;;;;5012451;28;20293;-49
2023/09/26 09:20:34;;;;;;;2.10;2.00;;;19.20;65.00;19.90;101269.00;;;;5013726;28;20270;-48
2023/09/26 09:23:04;;;;;;;1.97;1.80;;;19.20;65.10;20.00;101277.00;;;;5022951;28;20674;-49
2023/09/26 09:25:35;;;;;;;2.77;1.90;;;19.20;65.30;20.00;101271.00;;;;5018784;28;20181;-49
2023/09/26 09:28:01;;;;;;;2.00;1.90;;;19.20;66.20;20.00;101271.00;;;;5012078;28;20559;-47
2023/09/26 09:30:28;;;;;;;2.00;1.80;;;19.20;65.40;20.00;101264.00;;;;5011857;28;20248;-47
2023/09/26 09:32:54;;;;;;;2.07;1.97;;;19.20;65.50;20.00;101257.00;;;;5009922;28;20631;-47
2023/09/26 09:35:20;;;;;;;2.20;2.00;;;19.20;65.60;20.00;101255.00;;;;5009742;28;20563;-47
2023/09/26 09:37:47;;;;;;;2.20;2.00;;;19.20;65.80;20.10;101249.00;;;;5003929;28;20212;-46
2023/09/26 09:40:20;;;;;;;2.20;2.07;;;19.30;66.20;20.00;101248.00;;;;5011175;28;20212;-47
2023/09/26 09:42:49;;;;;;;3.63;2.10;;;19.30;66.30;20.00;101251.00;;;;5025873;28;20668;-47
2023/09/26 09:45:16;;;;;;;8.63;2.10;;;19.30;66.40;19.80;101256.00;;;;5011437;28;20182;-47
2023/09/26 09:47:47;;;;;;;2.87;2.20;;;19.30;68.30;20.10;101247.00;;;;5011195;28;20183;-48
2023/09/26 09:50:14;;;;;;;4.33;2.40;;;19.30;67.10;20.10;101249.00;;;;5006058;28;20186;-47
2023/09/26 09:52:43;;;;;;;4.60;2.40;;;19.30;67.30;20.10;101244.00;;;;5009710;28;20208;-47
2023/09/26 09:55:19;;;;;;;4.07;2.20;;;19.30;67.30;20.10;101256.00;;;;5010874;28;20199;-48
2023/09/26 09:57:48;;;;;;;4.17;2.30;;;19.30;67.20;20.10;101242.00;;;;4994627;28;20207;-48
2023/09/26 10:00:14;;;;;;;4.50;2.17;;;19.30;67.40;20.10;101239.00;;;;5011009;28;20556;-48
2023/09/26 10:02:40;;;;;;;3.40;2.20;;;19.30;67.50;20.10;101239.00;;;;5009638;28;20726;-48
2023/09/26 10:05:12;;;;;;;6.47;2.30;;;19.30;67.50;20.20;101235.00;;;;4993049;28;20544;-48
2023/09/26 10:07:43;;;;;;;3.40;2.37;;;19.40;67.80;20.20;101234.00;;;;5010222;28;20176;-47
2023/09/26 10:10:10;;;;;;;3.13;2.33;;;19.40;67.90;20.20;101223.00;;;;5009654;28;20178;-48
2023/09/26 10:12:38;;;;;;;4.47;2.40;;;19.40;67.90;20.20;101234.00;;;;5008442;28;20694;-47
2023/09/26 10:15:11;;;;;;;4.60;2.43;;;19.40;69.70;20.20;101231.00;;;;5009630;28;20645;-48
2023/09/26 10:17:39;;;;;;;6.63;2.37;;;19.40;69.80;20.20;101233.00;;;;5010505;28;20187;-47
2023/09/26 10:20:10;;;;;;;2.40;2.20;;;19.40;70.20;20.20;101239.00;;;;5010329;28;20282;-48
2023/09/26 10:22:38;;;;;;;5.33;2.37;;;19.50;70.30;20.20;101234.00;;;;5009320;28;20200;-50
2023/09/26 10:25:05;;;;;;;5.17;2.47;;;19.50;70.30;20.30;101231.00;;;;5011065;28;20285;-47
2023/09/26 10:27:30;;;;;;;2.37;2.17;;;19.60;70.10;20.30;101225.00;;;;4992809;28;20243;-48
2023/09/26 10:29:56;;;;;;;2.60;2.20;;;19.60;69.40;20.30;101229.00;;;;5010267;28;20660;-47
2023/09/26 10:32:33;;;;;;;2.33;2.10;;;19.60;69.40;20.30;101232.00;;;;5010376;28;20206;-48
2023/09/26 10:34:59;;;;;;;2.70;2.03;;;19.60;69.80;20.30;101229.00;;;;5010709;28;20241;-48
2023/09/26 10:37:28;;;;;;;2.70;2.30;;;19.70;70.00;20.30;101223.00;;;;5010130;28;20191;-47
2023/09/26 10:39:54;;;;;;;3.53;2.20;;;19.70;70.20;20.30;101232.00;;;;5008966;28;20215;-47
2023/09/26 10:42:23;;;;;;;3.90;2.30;;;19.70;69.30;20.40;101219.00;;;;5010366;28;20196;-47
2023/09/26 10:44:50;;;;;;;2.53;2.07;;;19.70;69.10;20.40;101214.00;;;;5008521;28;20186;-49